Flight Track Log - Related Links

Times and Time Zones

All times are in EDT time to prevent confusion due to time zone crossing. See the XOJ552 flight status page for this flight to view local times or setup timezone preferences in your user account.

Time Position Orientation Groundspeed Altitude Reporting Facility
EDT Latitude Longitude Course Direction KTS MPH feet Rate Location/Type
Wed 12:29:45 PM 40.8167 -74.1500 304° West 206 237 1,600  Level New York TRACON
Wed 12:30:39 PM 40.8000 -74.2167 252° West 240 276 3,800 3,105 Climbing New York TRACON
Wed 12:31:39 PM 40.8333 -74.2833 303° West 244 281 7,500 3,050 Climbing New York TRACON
Wed 12:32:39 PM 40.9000 -74.3333 330° Northwest 266 306 9,900 1,950 Climbing New York TRACON
Wed 12:33:39 PM 40.9167 -74.4167 285° West 290 334 11,400 2,350 Climbing New York TRACON
Wed 12:34:39 PM 40.9167 -74.5333 270° West 296 341 14,600 2,727 Climbing New York TRACON
Wed 12:35:00 PM 41.1874 -74.8248 304° West  Level FlightAware Approximate
Wed 12:35:40 PM 40.9186 -74.6539 271° West 316 364 16,900  Level New York Center
Wed 12:36:42 PM 40.9186 -74.7775 270° West 337 388 16,900  Level New York Center
Wed 12:37:40 PM 40.9189 -74.8928 270° West 348 400 16,900 1,169 Level New York Center
Wed 12:38:40 PM 40.9178 -75.0383 269° West 354 407 19,200 1,983 Climbing New York Center
Wed 12:39:41 PM 40.9175 -75.1619 270° West 354 407 20,900 1,613 Climbing New York Center
Wed 12:40:39 PM 40.8897 -75.2892 254° West 354 407 22,400 1,563 Climbing New York Center
Wed 12:41:40 PM 40.8617 -75.4189 254° West 359 413 24,000 1,707 Climbing New York Center
Wed 12:42:42 PM 40.8294 -75.5539 253° West 371 427 25,900 1,686 Climbing New York Center
Wed 12:43:41 PM 40.7989 -75.6861 253° West 377 434 27,400 1,361 Climbing New York Center
Wed 12:44:41 PM 40.7661 -75.8233 253° West 387 445 28,600 1,488 Climbing New York Center
Wed 12:45:42 PM 40.7328 -75.9633 253° West 394 453 30,400 1,627 Climbing New York Center
Wed 12:46:39 PM 40.6994 -76.1061 253° West 400 460 31,800 1,282 Climbing New York Center
Wed 12:47:39 PM 40.7094 -76.2547 275° West 400 460 32,900 992 Climbing New York Center
Wed 12:48:40 PM 40.7272 -76.4067 279° West 407 468 33,800 1,033 Climbing New York Center
Wed 12:49:41 PM 40.7467 -76.5644 279° West 420 483 35,000 1,311 Climbing New York Center
Wed 12:50:39 PM 40.7614 -76.6864 279° West 430 495 36,400 1,462 Climbing New York Center
Wed 12:51:40 PM 40.7803 -76.8497 279° West 425 489 37,900 1,339 Climbing New York Center
Wed 12:52:40 PM 40.7981 -76.9911 279° West 413 475 39,100 850 Climbing New York Center
Wed 12:53:40 PM 40.8131 -77.1378 278° West 408 470 39,600 545 Climbing New York Center
Wed 12:54:41 PM 40.8319 -77.2878 279° West 408 470 40,200 569 Climbing New York Center
Wed 12:57:11 PM 40.8719 -77.6558 278° West 413 475 41,600 514 Climbing Cleveland Center
Wed 12:58:11 PM 40.8881 -77.8061 278° West 408 470 42,000 400 Climbing Cleveland Center
Wed 12:59:11 PM 40.9042 -77.9567 278° West 408 470 42,400 400 Climbing Cleveland Center
Wed 01:00:11 PM 40.9200 -78.1017 278° West 408 470 42,800 300 Climbing Cleveland Center
Wed 01:01:11 PM 40.9403 -78.2714 279° West 413 475 43,000 100 Climbing Cleveland Center
Wed 01:02:11 PM 40.9556 -78.4219 278° West 413 475 43,000  Level Cleveland Center
Wed 01:03:11 PM 40.9689 -78.5728 277° West 419 482 43,000  Level Cleveland Center
Wed 01:04:11 PM 40.9861 -78.7236 279° West 424 488 43,000  Level Cleveland Center
Wed 01:05:11 PM 41.0008 -78.8747 277° West 424 488 43,000  Level Cleveland Center
Wed 01:06:11 PM 41.0133 -79.0283 276° West 424 488 43,000  Level Cleveland Center
Wed 01:07:11 PM 41.0300 -79.1847 278° West 424 488 43,000  Level Cleveland Center
Wed 01:08:11 PM 41.0444 -79.3361 277° West 424 488 43,000  Level Cleveland Center
Wed 01:09:11 PM 41.0583 -79.4872 277° West 424 488 43,000  Level Cleveland Center
Wed 01:10:11 PM 41.0722 -79.6411 277° West 424 488 43,000  Level Cleveland Center
Wed 01:11:11 PM 41.0858 -79.7953 277° West 424 488 43,000  Level Cleveland Center
Wed 01:12:11 PM 41.0994 -79.9522 277° West 424 488 43,000  Level Cleveland Center
Wed 01:13:11 PM 41.1128 -80.1064 277° West 424 488 43,000  Level Cleveland Center
Wed 01:14:11 PM 41.1278 -80.2633 277° West 424 488 43,000  Level Cleveland Center
Wed 01:15:11 PM 41.1364 -80.4206 274° West 424 488 43,000  Level Cleveland Center
Wed 01:16:11 PM 41.1492 -80.5750 276° West 424 488 43,000  Level Cleveland Center
Wed 01:17:11 PM 41.1636 -80.7319 277° West 429 494 43,000  Level Cleveland Center
Wed 01:18:11 PM 41.1736 -80.8867 275° West 429 494 43,000  Level Cleveland Center
Wed 01:19:11 PM 41.1856 -81.0439 276° West 429 494 43,000  Level Cleveland Center
Wed 01:20:11 PM 41.1994 -81.2014 277° West 424 488 43,000  Level Cleveland Center
Wed 01:21:11 PM 41.2111 -81.3558 276° West 431 496 43,000  Level Cleveland Center
Wed 01:22:11 PM 41.2267 -81.5161 277° West 431 496 43,000  Level Cleveland Center
Wed 01:23:11 PM 41.2378 -81.6739 275° West 431 496 43,000  Level Cleveland Center
Wed 01:24:11 PM 41.2506 -81.8342 276° West 431 496 43,000  Level Cleveland Center
Wed 01:26:11 PM 41.2675 -82.1578 274° West 437 503 43,000  Level Cleveland Center
Wed 01:27:11 PM 41.2778 -82.3128 275° West 443 510 43,000  Level Cleveland Center
Wed 01:28:11 PM 41.2878 -82.4650 275° West 437 503 43,000  Level Cleveland Center
Wed 01:29:11 PM 41.2975 -82.6256 275° West 431 496 43,000  Level Cleveland Center
Wed 01:30:11 PM 41.3072 -82.7806 275° West 425 489 43,000  Level Cleveland Center
Wed 01:31:11 PM 41.3167 -82.9331 275° West 425 489 43,000  Level Cleveland Center
Wed 01:32:11 PM 41.3258 -83.0883 275° West 425 489 43,000  Level Cleveland Center
Wed 01:33:11 PM 41.3311 -83.2267 273° West 425 489 43,000  Level Cleveland Center
Wed 01:34:11 PM 41.3400 -83.3739 275° West 420 483 43,000  Level Cleveland Center
Wed 01:35:11 PM 41.3486 -83.5292 274° West 420 483 43,000  Level Cleveland Center
Wed 01:36:11 PM 41.3592 -83.6872 275° West 426 490 43,000  Level Cleveland Center
Wed 01:37:11 PM 41.3672 -83.8425 274° West 426 490 43,000  Level Cleveland Center
Wed 01:38:02 PM 41.3781 -83.9856 276° West 425 489 43,000  Level Chicago Center
Wed 01:39:04 PM 41.3861 -84.1436 274° West 429 494 43,000  Level Chicago Center
Wed 01:40:06 PM 41.3936 -84.3022 274° West 430 495 43,000  Level Chicago Center
Wed 01:41:08 PM 41.4017 -84.4606 274° West 430 495 43,000  Level Chicago Center
Wed 01:42:11 PM 41.4086 -84.6197 273° West 431 496 43,000  Level Chicago Center
Wed 01:43:13 PM 41.4178 -84.8117 274° West 433 498 43,000  Level Chicago Center
Wed 01:44:15 PM 41.4250 -84.9714 274° West 432 497 43,000  Level Chicago Center
Wed 01:45:17 PM 41.4308 -85.1319 273° West 433 498 43,000  Level Chicago Center
Wed 01:46:19 PM 41.4369 -85.2967 273° West 439 505 43,000  Level Chicago Center
Wed 01:47:21 PM 41.4436 -85.4622 273° West 441 507 43,000  Level Chicago Center
Wed 01:48:23 PM 41.4492 -85.6250 273° West 435 501 43,000  Level Chicago Center
Wed 01:49:26 PM 41.4558 -85.7811 273° West 426 490 43,000  Level Chicago Center
Wed 01:50:28 PM 41.4614 -85.9353 273° West 422 486 43,000  Level Chicago Center
Wed 01:51:30 PM 41.4667 -86.1189 272° West 419 482 43,000  Level Chicago Center
Wed 01:52:32 PM 41.4722 -86.2728 273° West 418 481 43,000  Level Chicago Center
Wed 01:53:34 PM 41.4769 -86.4267 272° West 417 480 43,000  Level Chicago Center
Wed 01:54:36 PM 41.4808 -86.5808 272° West 419 482 43,000  Level Chicago Center
Wed 01:55:38 PM 41.4858 -86.7375 272° West 418 481 43,000  Level Chicago Center
Wed 01:56:40 PM 41.4894 -86.8900 272° West 416 479 43,000  Level Chicago Center
Wed 01:57:43 PM 41.4939 -87.0761 272° West 420 483 43,000  Level Chicago Center
Wed 01:58:45 PM 41.4972 -87.2319 272° West 424 488 43,000  Level Chicago Center
Wed 01:59:47 PM 41.5017 -87.3894 272° West 427 491 43,000  Level Chicago Center
Wed 02:00:49 PM 41.5064 -87.5472 272° West 431 496 43,000  Level Chicago Center
Wed 02:01:51 PM 41.5094 -87.7056 272° West 430 495 43,000  Level Chicago Center
Wed 02:02:53 PM 41.5131 -87.8953 272° West 432 497 43,000  Level Chicago Center
Wed 02:03:55 PM 41.5194 -88.0553 273° West 441 507 43,000  Level Chicago Center
Wed 02:04:58 PM 41.5200 -88.2128 270° West 440 506 43,000  Level Chicago Center
Wed 02:06:00 PM 41.5214 -88.4050 271° West 441 507 43,000  Level Chicago Center
Wed 02:07:03 PM 41.5233 -88.5667 271° West 441 507 43,000  Level Chicago Center
Wed 02:08:05 PM 41.5244 -88.7250 271° West 434 499 43,000  Level Chicago Center
Wed 02:09:07 PM 41.5267 -88.8867 271° West 437 503 43,000  Level Chicago Center
Wed 02:10:09 PM 41.5286 -89.0758 271° West 431 496 43,000  Level Chicago Center
Wed 02:11:11 PM 41.5294 -89.2139 271° West 430 495 43,000  Level Chicago Center
Wed 02:12:12 PM 41.5311 -89.3753 271° West 434 499 43,000  Level Chicago Center
Wed 02:13:14 PM 41.5317 -89.5675 270° West 434 499 43,000  Level Chicago Center
Wed 02:14:16 PM 41.5317 -89.7281 270° West 436 502 43,000  Level Chicago Center
Wed 02:15:18 PM 41.5331 -89.8889 271° West 436 502 43,000  Level Chicago Center
Wed 02:16:20 PM 41.5331 -90.0519 270° West 440 506 43,000  Level Chicago Center
Wed 02:17:22 PM 41.5328 -90.2156 270° West 442 509 43,000  Level Chicago Center
Wed 02:18:24 PM 41.5317 -90.4156 270° West 450 518 43,000  Level Chicago Center
Wed 02:19:26 PM 41.5308 -90.5794 270° West 443 510 43,000  Level Chicago Center
Wed 02:20:28 PM 41.5278 -90.7428 269° West 456 525 43,000  Level Chicago Center
Wed 02:21:30 PM 41.5275 -90.9078 270° West 449 517 43,000  Level Chicago Center
Wed 02:22:32 PM 41.5258 -91.0708 269° West 443 510 43,000  Level Chicago Center
Wed 02:23:34 PM 41.5242 -91.2672 269° West 444 511 43,000  Level Chicago Center
Wed 02:24:36 PM 41.5214 -91.4303 269° West 442 509 43,000  Level Chicago Center
Wed 02:25:38 PM 41.5203 -91.5914 270° West 437 503 43,000  Level Chicago Center
Wed 02:26:40 PM 41.5150 -91.7508 268° West 434 499 43,000  Level Chicago Center
Wed 02:27:42 PM 41.5100 -91.9122 268° West 437 503 43,000  Level Chicago Center
Wed 02:28:45 PM 41.5028 -92.1058 267° West 436 502 43,000  Level Chicago Center
Wed 02:29:47 PM 41.4978 -92.2669 268° West 438 504 43,000  Level Chicago Center
Wed 02:30:49 PM 41.4919 -92.4164 267° West 434 499 43,000  Level Chicago Center
Wed 02:31:51 PM 41.4856 -92.5733 267° West 430 495 43,000  Level Chicago Center
Wed 02:33:07 PM 41.4764 -92.7972 267° West 433 498 43,000  Level Minneapolis Center
Wed 02:34:09 PM 41.4697 -92.9567 267° West 434 499 43,000  Level Minneapolis Center
Wed 02:35:11 PM 41.4622 -93.1144 266° West 433 498 43,000  Level Minneapolis Center
Wed 02:36:13 PM 41.4536 -93.3058 267° West 435 501 43,000  Level Minneapolis Center
Wed 02:37:16 PM 41.4472 -93.4650 267° West 436 502 43,000  Level Minneapolis Center
Wed 02:38:18 PM 41.4408 -93.6189 267° West 425 489 43,000  Level Minneapolis Center
Wed 02:39:20 PM 41.4394 -93.7783 269° West 431 496 43,000  Level Minneapolis Center
Wed 02:40:22 PM 41.4389 -93.9406 270° West 436 502 43,000  Level Minneapolis Center
Wed 02:41:24 PM 41.4378 -94.1308 270° West 436 502 43,000  Level Minneapolis Center
Wed 02:42:26 PM 41.4408 -94.2867 272° West 427 491 43,000  Level Minneapolis Center
Wed 02:43:28 PM 41.4408 -94.4439 270° West 426 490 43,000  Level Minneapolis Center
Wed 02:44:30 PM 41.4408 -94.6017 270° West 426 490 43,000  Level Minneapolis Center
Wed 02:45:32 PM 41.4414 -94.7586 270° West 425 489 43,000  Level Minneapolis Center
Wed 02:46:34 PM 41.4406 -94.9444 270° West 420 483 43,000  Level Minneapolis Center
Wed 02:47:37 PM 41.4392 -95.0964 269° West 412 474 43,000  Level Minneapolis Center
Wed 02:48:39 PM 41.4383 -95.2525 270° West 420 483 43,000  Level Minneapolis Center
Wed 02:49:41 PM 41.4372 -95.4081 270° West 422 486 43,000  Level Minneapolis Center
Wed 02:50:43 PM 41.4353 -95.5325 269° West 420 483 43,000  Level Minneapolis Center
Wed 02:51:45 PM 41.4339 -95.7350 270° West 418 481 43,000  Level Minneapolis Center
Wed 02:52:47 PM 41.4322 -95.8900 269° West 421 484 43,000  Level Minneapolis Center
Wed 02:53:49 PM 41.4294 -96.0514 269° West 434 499 43,000  Level Minneapolis Center
Wed 02:54:51 PM 41.4242 -96.2094 268° West 433 498 43,000  Level Minneapolis Center
Wed 02:55:54 PM 41.4261 -96.3711 271° West 427 491 43,000  Level Minneapolis Center
Wed 02:56:56 PM 41.4208 -96.5600 268° West 426 490 43,000  Level Minneapolis Center
Wed 02:57:58 PM 41.4100 -96.7206 265° West 433 498 43,000  Level Minneapolis Center
Wed 02:59:00 PM 41.3992 -96.8817 265° West 437 503 43,000  Level Minneapolis Center
Wed 03:00:02 PM 41.3897 -97.0433 266° West 438 504 43,000  Level Minneapolis Center
Wed 03:01:05 PM 41.3786 -97.2053 265° West 439 505 43,000  Level Minneapolis Center
Wed 03:02:06 PM 41.3681 -97.3672 265° West 439 505 43,000  Level Minneapolis Center
Wed 03:03:38 PM 41.3492 -97.6456 265° West 440 506 43,000  Level Denver Center
Wed 03:04:11 PM 41.3428 -97.7228 264° West 440 506 43,000  Level Minneapolis Center
Wed 03:05:13 PM 41.3314 -97.8836 265° West 437 503 43,000  Level Minneapolis Center
Wed 03:06:15 PM 41.3200 -98.0408 265° West 431 496 43,000  Level Minneapolis Center
Wed 03:07:17 PM 41.3078 -98.2044 264° West 424 488 43,000  Level Minneapolis Center
Wed 03:08:19 PM 41.2969 -98.3589 265° West 422 486 43,000  Level Minneapolis Center
Wed 03:09:21 PM 41.2836 -98.5361 264° West 422 486 43,000  Level Minneapolis Center
Wed 03:10:23 PM 41.2725 -98.6900 265° West 421 484 43,000  Level Minneapolis Center
Wed 03:11:26 PM 41.2622 -98.8464 265° West 424 488 43,000  Level Minneapolis Center
Wed 03:12:28 PM 41.2464 -99.0003 262° West 424 488 43,000  Level Minneapolis Center
Wed 03:13:30 PM 41.2306 -99.1839 264° West 422 486 43,000  Level Minneapolis Center
Wed 03:14:32 PM 41.2178 -99.3375 264° West 421 484 43,000  Level Minneapolis Center
Wed 03:15:34 PM 41.2042 -99.4906 263° West 421 484 43,000  Level Minneapolis Center
Wed 03:16:36 PM 41.1917 -99.6433 264° West 418 481 43,000  Level Minneapolis Center
Wed 03:17:38 PM 41.1778 -99.7961 263° West 417 480 43,000  Level Minneapolis Center
Wed 03:18:40 PM 41.1647 -99.9492 264° West 418 481 43,000  Level Minneapolis Center
Wed 03:19:42 PM 41.1478 -100.1303 263° West 414 476 43,000  Level Minneapolis Center
Wed 03:20:44 PM 41.1331 -100.2853 263° West 418 481 43,000  Level Minneapolis Center
Wed 03:21:47 PM 41.1189 -100.4375 263° West 419 482 43,000  Level Minneapolis Center
Wed 03:22:49 PM 41.1042 -100.5897 263° West 417 480 43,000  Level Minneapolis Center
Wed 03:24:20 PM 41.0831 -100.8203 263° West 422 486 43,000  Level Denver Center
Wed 03:25:21 PM 41.0644 -100.9897 262° West 422 486 43,000  Level Denver Center
Wed 03:26:23 PM 41.0489 -101.1342 262° West 419 482 43,000  Level Denver Center
Wed 03:27:25 PM 41.0319 -101.3036 263° West 417 480 43,000  Level Denver Center
Wed 03:28:27 PM 41.0167 -101.4500 262° West 419 482 43,000  Level Denver Center
Wed 03:29:29 PM 40.9983 -101.6203 262° West 419 482 43,000  Level Denver Center
Wed 03:30:31 PM 40.9825 -101.7672 262° West 421 484 43,000  Level Denver Center
Wed 03:31:33 PM 40.9639 -101.9392 262° West 425 489 43,000  Level Denver Center
Wed 03:32:35 PM 40.9469 -102.0867 261° West 425 489 43,000  Level Denver Center
Wed 03:33:38 PM 40.9311 -102.2594 263° West 427 491 43,000  Level Denver Center
Wed 03:34:40 PM 40.9119 -102.4086 260° West 430 495 43,000  Level Denver Center
Wed 03:35:42 PM 40.8925 -102.5806 262° West 426 490 43,000  Level Denver Center
Wed 03:36:44 PM 40.8750 -102.7297 261° West 429 494 43,000  Level Denver Center
Wed 03:37:46 PM 40.8550 -102.9036 261° West 430 495 43,000  Level Denver Center
Wed 03:38:48 PM 40.8369 -103.0611 261° West 428 493 43,000  Level Denver Center
Wed 03:39:50 PM 40.8175 -103.2172 261° West 432 497 43,000  Level Denver Center
Wed 03:40:52 PM 40.7994 -103.3708 261° West 426 490 43,000  Level Denver Center
Wed 03:41:54 PM 40.7817 -103.5272 262° West 433 498 43,000  Level Denver Center
Wed 03:42:56 PM 40.7614 -103.6811 260° West 428 493 43,000  Level Denver Center
Wed 03:43:58 PM 40.7375 -103.8669 260° West 432 497 43,000  Level Denver Center
Wed 03:45:00 PM 40.7194 -104.0197 261° West 425 489 43,000  Level Denver Center
Wed 03:46:02 PM 40.6997 -104.1761 261° West 434 499 43,000  Level Denver Center
Wed 03:47:04 PM 40.6794 -104.3278 260° West 424 488 43,000  Level Denver Center
Wed 03:48:06 PM 40.6589 -104.4825 260° West 431 496 43,000  Level Denver Center
Wed 03:49:08 PM 40.6386 -104.6383 260° West 434 499 43,000  Level Denver Center
Wed 03:50:10 PM 40.6142 -104.8256 260° West 435 501 43,000  Level Denver Center
Wed 03:51:13 PM 40.5922 -104.9800 259° West 433 498 43,000  Level Denver Center
Wed 03:52:15 PM 40.5708 -105.1328 260° West 426 490 43,000  Level Denver Center
Wed 03:53:17 PM 40.5500 -105.2853 260° West 426 490 43,000  Level Denver Center
Wed 03:54:19 PM 40.5281 -105.4408 260° West 434 499 43,000  Level Denver Center
Wed 03:55:21 PM 40.5022 -105.6231 259° West 429 494 43,000  Level Denver Center
Wed 03:56:23 PM 40.4797 -105.7769 259° West 430 495 43,000  Level Denver Center
Wed 03:57:25 PM 40.4581 -105.9317 260° West 433 498 43,000  Level Denver Center
Wed 03:58:27 PM 40.4356 -106.0858 259° West 434 499 43,000  Level Denver Center
Wed 03:59:29 PM 40.4125 -106.2447 259° West 428 493 43,000  Level Denver Center
Wed 04:00:31 PM 40.3867 -106.4147 259° West 427 491 43,000  Level Denver Center
Wed 04:01:45 PM 40.3650 -106.5603 259° West 425 489 43,000  Level Denver Center
Wed 04:02:48 PM 40.3358 -106.7544 259° West 425 489 43,000  Level Denver Center
Wed 04:03:50 PM 40.3144 -106.8986 259° West 423 487 43,000  Level Denver Center
Wed 04:04:52 PM 40.2886 -107.0661 259° West 422 486 43,000  Level Denver Center
Wed 04:05:54 PM 40.2661 -107.2086 258° West 419 482 43,000  Level Denver Center
Wed 04:06:56 PM 40.2394 -107.3761 258° West 421 484 43,000  Level Denver Center
Wed 04:07:58 PM 40.2164 -107.5194 258° West 422 486 43,000  Level Denver Center
Wed 04:09:00 PM 40.1900 -107.6864 258° West 420 483 43,000  Level Denver Center
Wed 04:10:02 PM 40.1675 -107.8292 258° West 422 486 43,000  Level Denver Center
Wed 04:11:04 PM 40.1394 -107.9964 258° West 424 488 43,000  Level Denver Center
Wed 04:12:06 PM 40.1158 -108.1403 258° West 424 488 43,000  Level Denver Center
Wed 04:13:08 PM 40.0889 -108.3072 258° West 424 488 43,000  Level Denver Center
Wed 04:13:48 PM 40.0731 -108.4031 258° West 424 488 43,000  Level Salt Lake Center
Wed 04:14:50 PM 40.0492 -108.5458 258° West 423 487 43,000  Level Salt Lake Center
Wed 04:15:51 PM 40.0197 -108.7117 257° West 423 487 43,000  Level Salt Lake Center
Wed 04:16:53 PM 39.9956 -108.8539 258° West 422 486 43,000  Level Salt Lake Center
Wed 04:17:55 PM 39.9672 -109.0192 257° West 422 486 43,000  Level Salt Lake Center
Wed 04:18:57 PM 39.9425 -109.1619 257° West 424 488 43,000  Level Salt Lake Center
Wed 04:19:59 PM 39.9125 -109.3269 257° West 423 487 43,000  Level Salt Lake Center
Wed 04:21:01 PM 39.8872 -109.4686 257° West 421 484 43,000  Level Salt Lake Center
Wed 04:22:03 PM 39.8575 -109.6331 257° West 420 483 43,000  Level Salt Lake Center
Wed 04:23:05 PM 39.8322 -109.7750 257° West 421 484 43,000  Level Salt Lake Center
Wed 04:24:07 PM 39.8025 -109.9389 257° West 418 481 43,000  Level Salt Lake Center
Wed 04:25:09 PM 39.7767 -110.0781 256° West 415 478 43,000  Level Salt Lake Center
Wed 04:26:11 PM 39.7467 -110.2417 257° West 416 479 43,000  Level Salt Lake Center
Wed 04:27:13 PM 39.7219 -110.3825 257° West 418 481 43,000  Level Salt Lake Center
Wed 04:28:15 PM 39.6908 -110.5458 256° West 418 481 43,000  Level Salt Lake Center
Wed 04:29:17 PM 39.6644 -110.6858 256° West 419 482 43,000  Level Salt Lake Center
Wed 04:30:18 PM 39.6325 -110.8517 256° West 422 486 43,000  Level Salt Lake Center
Wed 04:31:20 PM 39.6058 -110.9919 256° West 421 484 43,000  Level Salt Lake Center
Wed 04:32:22 PM 39.5786 -111.1308 256° West 418 481 43,000  Level Salt Lake Center
Wed 04:33:25 PM 39.5500 -111.2817 256° West 420 483 43,000  Level Salt Lake Center
Wed 04:34:26 PM 39.5194 -111.4283 255° West 422 486 43,000  Level Salt Lake Center
Wed 04:35:28 PM 39.4869 -111.6053 257° West 421 484 43,000  Level Salt Lake Center
Wed 04:36:30 PM 39.4547 -111.7528 254° West 424 488 43,000  Level Salt Lake Center
Wed 04:37:32 PM 39.4261 -111.8994 256° West 421 484 43,000  Level Salt Lake Center
Wed 04:38:34 PM 39.3961 -112.0456 255° West 421 484 43,000  Level Salt Lake Center
Wed 04:39:36 PM 39.3667 -112.1925 256° West 422 486 43,000  Level Salt Lake Center
Wed 04:40:38 PM 39.3381 -112.3425 256° West 428 493 43,000  Level Salt Lake Center
Wed 04:41:40 PM 39.3083 -112.4883 255° West 425 489 43,000  Level Salt Lake Center
Wed 04:42:41 PM 39.2703 -112.6553 254° West 422 486 43,000  Level Salt Lake Center
Wed 04:43:43 PM 39.2381 -112.8006 254° West 422 486 43,000  Level Salt Lake Center
Wed 04:44:45 PM 39.2050 -112.9469 254° West 427 491 43,000  Level Salt Lake Center
Wed 04:45:47 PM 39.1719 -113.0933 254° West 428 493 43,000  Level Salt Lake Center
Wed 04:46:49 PM 39.1325 -113.2703 254° West 429 494 43,000  Level Salt Lake Center
Wed 04:47:51 PM 39.0983 -113.4119 253° West 422 486 43,000  Level Salt Lake Center
Wed 04:48:53 PM 39.0661 -113.5567 254° West 423 487 43,000  Level Salt Lake Center
Wed 04:49:54 PM 39.0319 -113.7022 253° West 425 489 43,000  Level Salt Lake Center
Wed 04:50:56 PM 38.9986 -113.8475 254° West 426 490 43,000  Level Salt Lake Center
Wed 04:51:58 PM 38.9639 -113.9936 253° West 429 494 43,000  Level Salt Lake Center
Wed 04:53:00 PM 38.9225 -114.1681 253° West 429 494 43,000  Level Salt Lake Center
Wed 04:54:02 PM 38.8892 -114.3133 254° West 427 491 43,000  Level Salt Lake Center
Wed 04:55:04 PM 38.8531 -114.4617 253° West 434 499 43,000  Level Salt Lake Center
Wed 04:56:06 PM 38.8186 -114.6069 253° West 431 496 43,000  Level Salt Lake Center
Wed 04:57:08 PM 38.7819 -114.7556 252° West 437 503 43,000  Level Salt Lake Center
Wed 04:58:10 PM 38.7472 -114.9025 253° West 434 499 43,000  Level Salt Lake Center
Wed 04:59:12 PM 38.7011 -115.0808 252° West 439 505 43,000  Level Salt Lake Center
Wed 05:00:14 PM 38.6628 -115.2300 252° West 442 509 43,000  Level Salt Lake Center
Wed 05:01:16 PM 38.6311 -115.3636 253° West 438 504 43,000  Level Salt Lake Center
Wed 05:02:18 PM 38.5914 -115.5300 253° West 429 494 43,000  Level Salt Lake Center
Wed 05:03:20 PM 38.5539 -115.6781 252° West 436 502 43,000  Level Salt Lake Center
Wed 05:04:22 PM 38.5169 -115.8231 252° West 433 498 43,000  Level Salt Lake Center
Wed 05:05:24 PM 38.4789 -115.9706 252° West 437 503 43,000  Level Salt Lake Center
Wed 05:06:26 PM 38.4422 -116.1144 252° West 431 496 43,000  Level Salt Lake Center
Wed 05:07:28 PM 38.3967 -116.2914 252° West 437 503 43,000  Level Salt Lake Center
Wed 05:08:03 PM 38.3758 -116.3681 251° West 439 505 43,000  Level Oakland Center
Wed 05:09:04 PM 38.3372 -116.5172 252° West 434 499 43,000  Level Oakland Center
Wed 05:10:06 PM 38.2967 -116.6711 251° West 436 502 43,000  Level Oakland Center
Wed 05:11:07 PM 38.2617 -116.8075 252° West 428 493 43,000  Level Oakland Center
Wed 05:12:09 PM 38.2264 -116.9453 252° West 428 493 43,000  Level Oakland Center
Wed 05:13:10 PM 38.2158 -117.1058 265° West 437 503 43,000  Level Oakland Center
Wed 05:14:11 PM 38.2028 -117.2578 264° West 434 499 43,000  Level Oakland Center
Wed 05:15:13 PM 38.1894 -117.4097 264° West 434 499 43,000  Level Oakland Center
Wed 05:16:14 PM 38.1742 -117.5922 264° West 434 499 43,000  Level Oakland Center
Wed 05:17:15 PM 38.1600 -117.7469 263° West 437 503 43,000  Level Oakland Center
Wed 05:18:17 PM 38.1478 -117.8942 264° West 424 488 43,000  Level Oakland Center
Wed 05:19:18 PM 38.1336 -118.0464 263° West 430 495 43,000  Level Oakland Center
Wed 05:20:19 PM 38.1186 -118.1986 263° West 434 499 43,000 -492 Level Oakland Center
Wed 05:21:20 PM 38.1053 -118.3544 264° West 443 510 42,000 -1,024 Descending Oakland Center
Wed 05:22:22 PM 38.0906 -118.5075 263° West 438 504 40,900 -976 Descending Oakland Center
Wed 05:23:23 PM 38.0761 -118.6608 263° West 437 503 40,000 -984 Descending Oakland Center
Wed 05:24:24 PM 38.0611 -118.8142 263° West 434 499 38,900 -1,033 Descending Oakland Center
Wed 05:25:25 PM 38.0453 -118.9683 263° West 438 504 37,900 -984 Descending Oakland Center
Wed 05:26:26 PM 38.0303 -119.1258 263° West 448 516 36,900 -927 Descending Oakland Center
Wed 05:27:28 PM 38.0147 -119.2828 263° West 449 517 36,000 -439 Descending Oakland Center
Wed 05:28:29 PM 37.9986 -119.4408 263° West 452 520 36,000  Level Oakland Center
Wed 05:29:30 PM 37.9797 -119.6275 263° West 447 514 36,000  Level Oakland Center
Wed 05:30:32 PM 37.9628 -119.7836 262° West 448 516 36,000  Level Oakland Center
Wed 05:31:33 PM 37.9447 -119.9419 262° West 452 520 36,000 -49 Level Oakland Center
Wed 05:32:34 PM 37.9275 -120.0992 262° West 450 518 35,900 -1,033 Descending Oakland Center
Wed 05:33:35 PM 37.9117 -120.2547 263° West 446 513 33,900 -2,098 Descending Oakland Center
Wed 05:34:37 PM 37.8939 -120.4083 262° West 443 510 31,600 -2,341 Descending Oakland Center
Wed 05:35:38 PM 37.8761 -120.5656 262° West 449 517 29,100 -2,681 Descending Oakland Center
Wed 05:36:11 PM 37.8667 -120.6667 263° West 438 504 27,400 -2,903 Descending Northern Cal TRACON
Wed 05:37:11 PM 37.8500 -120.8167 262° West 418 481 24,600 -2,650 Descending Northern Cal TRACON
Wed 05:38:11 PM 37.8500 -120.9500 270° West 396 456 22,100 -2,450 Descending Northern Cal TRACON
Wed 05:39:11 PM 37.8333 -121.0833 261° West 379 436 19,700 -2,450 Descending Northern Cal TRACON
Wed 05:40:11 PM 37.8167 -121.2167 261° West 447 514 17,200 -2,300 Descending Northern Cal TRACON
Wed 05:41:11 PM 37.7833 -121.3333 250° West 333 383 15,100 -2,050 Descending Northern Cal TRACON
Wed 05:42:11 PM 37.7333 -121.4333 238° Southwest 314 361 13,100 -1,937 Descending Northern Cal TRACON
Wed 05:43:49 PM 37.6872 -121.5825 249° West 299 344 10,000 -1,849 Descending Oakland Center
Wed 05:44:50 PM 37.6542 -121.6717 245° Southwest 287 330 8,200 -1,463 Descending Oakland Center
Wed 05:45:52 PM 37.6333 -121.7606 254° West 285 328 7,000 -1,073 Descending Oakland Center
Wed 05:46:53 PM 37.6428 -121.8542 277° West 274 315 6,000 -1,279 Descending Oakland Center
Wed 05:47:54 PM 37.6511 -121.9450 277° West 265 305 4,400 -976 Descending Oakland Center
Wed 05:48:56 PM 37.6661 -122.0242 283° West 251 289 4,000 -585 Descending Oakland Center
Wed 05:49:57 PM 37.6817 -122.0753 291° West 192 221 3,200 -927 Descending Oakland Center
Wed 05:50:59 PM 37.6947 -122.1172 291° West 156 180 2,100 -1,220 Descending Oakland Center
Wed 05:52:00 PM 37.7097 -122.1631 292° West 131 151 700 -984 Descending Oakland Center
Wed 05:53:01 PM 37.7211 -122.2000 291° West 121 139 100 -590 Descending Oakland Center
Wed 05:55:00 PM 37.7167 -122.2167 270° West  Level FlightAware Approximate

Login

Don't have an account? Register now (free) for customized features, flight alerts, and more!